createdAt,value
2022-11-05T00:00:05.788Z,99595.56
2022-11-05T00:03:26.589Z,99592.09
2022-11-05T00:06:46.525Z,99604.91
2022-11-05T00:09:49.333Z,99602.78
2022-11-05T00:13:25.341Z,99611.03
2022-11-05T00:16:44.682Z,99620.56
2022-11-05T00:19:46.074Z,99611.47
2022-11-05T00:23:06.337Z,99607.53
2022-11-05T00:26:09.722Z,99611.91
2022-11-05T00:29:11.122Z,99617.31
2022-11-05T00:32:13.099Z,99614.91
2022-11-05T00:35:15.662Z,99623.56
2022-11-05T00:38:17.062Z,99628.75
2022-11-05T00:41:18.481Z,99633.19
2022-11-05T00:44:38.448Z,99635.78
2022-11-05T00:47:58.830Z,99630.69
2022-11-05T00:51:00.296Z,99631.69
2022-11-05T00:54:01.785Z,99636.03
2022-11-05T00:57:04.736Z,99637.88
2022-11-05T01:00:06.833Z,99640.75
2022-11-05T01:03:14.507Z,99637.53
2022-11-05T01:06:17.401Z,99645.88
2022-11-05T01:09:18.840Z,99644.13
2022-11-05T01:12:20.234Z,99653.97
2022-11-05T01:15:21.797Z,99650.22
2022-11-05T01:18:24.415Z,99651.97
2022-11-05T01:21:26.084Z,99650.03
2022-11-05T01:24:27.629Z,99650.03
2022-11-05T01:27:29.279Z,99651.13
2022-11-05T01:30:31.446Z,99659.03
2022-11-05T01:33:32.827Z,99657.13
2022-11-05T01:36:34.254Z,99653.38
2022-11-05T01:39:35.685Z,99654.13
2022-11-05T01:42:37.059Z,99655.72
2022-11-05T01:45:38.531Z,99654.94
2022-11-05T01:48:40.271Z,99659.28
2022-11-05T01:51:43.702Z,99656.16
2022-11-05T01:54:47.147Z,99666.25
2022-11-05T01:57:49.106Z,99669.63
2022-11-05T02:00:50.992Z,99663.34
2022-11-05T02:03:57.962Z,99671.41
2022-11-05T02:06:59.933Z,99667.53
2022-11-05T02:10:04.391Z,99675.81
2022-11-05T02:13:05.853Z,99672.31
2022-11-05T02:16:34.436Z,99675.06
2022-11-05T02:19:58.762Z,99671.66
2022-11-05T02:23:40.093Z,99678.28
2022-11-05T02:27:03.477Z,99681.81
2022-11-05T02:30:12.113Z,99680.78
2022-11-05T02:33:31.095Z,99683.53
2022-11-05T02:37:11.134Z,99686.22
2022-11-05T02:40:33.714Z,99692.44
2022-11-05T02:43:53.736Z,99693.13
2022-11-05T02:47:17.966Z,99695.66
2022-11-05T02:50:26.710Z,99694.13
2022-11-05T02:53:38.464Z,99697.94
2022-11-05T02:56:44.722Z,99700.78
2022-11-05T02:59:46.161Z,99705.72
2022-11-05T03:02:47.741Z,99706.03
2022-11-05T03:06:14.243Z,99706.38
2022-11-05T03:09:57.555Z,99711.06
2022-11-05T03:13:14.344Z,99711.72
2022-11-05T03:16:21.380Z,99719.25
2022-11-05T03:19:41.021Z,99720.06
2022-11-05T03:22:54.419Z,99717.97
2022-11-05T03:26:04.580Z,99720.75
2022-11-05T03:29:13.307Z,99723.03
2022-11-05T03:32:17.272Z,99740.84
2022-11-05T03:35:34.523Z,99744.56
2022-11-05T03:38:40.129Z,99742.31
2022-11-05T03:41:46.665Z,99749.16
2022-11-05T03:44:52.486Z,99756.84
2022-11-05T03:47:58.759Z,99767.06
2022-11-05T03:51:29.471Z,99762.88
2022-11-05T03:54:32.447Z,99765.28
2022-11-05T03:57:39.299Z,99781.09
2022-11-05T04:00:40.899Z,99782.47
2022-11-05T04:03:42.374Z,99781.06
2022-11-05T04:07:02.523Z,99784.28
2022-11-05T04:10:22.878Z,99784.69
2022-11-05T04:13:24.299Z,99787.75
2022-11-05T04:16:44.518Z,99791.78
2022-11-05T04:20:04.413Z,99793.34
2022-11-05T04:23:25.701Z,99793.66
2022-11-05T04:26:27.089Z,99795.69
2022-11-05T04:29:47.233Z,99804.50
2022-11-05T04:32:56.519Z,99805.28
2022-11-05T04:35:57.910Z,99814.34
2022-11-05T04:38:59.444Z,99816.47
2022-11-05T04:42:00.937Z,99819.72
2022-11-05T04:45:02.351Z,99820.25
2022-11-05T04:48:04.390Z,99816.72
2022-11-05T04:51:06.038Z,99822.47
2022-11-05T04:54:07.622Z,99828.34
2022-11-05T04:57:09.035Z,99827.34
2022-11-05T05:00:11.361Z,99830.28
2022-11-05T05:03:13.128Z,99832.91
2022-11-05T05:06:15.646Z,99835.97
2022-11-05T05:09:17.039Z,99838.00
2022-11-05T05:12:18.544Z,99841.72
2022-11-05T05:15:20.038Z,99841.13
2022-11-05T05:18:21.475Z,99845.31
2022-11-05T05:21:38.649Z,99851.50
2022-11-05T05:24:40.049Z,99856.13
2022-11-05T05:27:41.453Z,99860.84
2022-11-05T05:30:43.000Z,99872.94
2022-11-05T05:33:44.388Z,99874.88
2022-11-05T05:36:45.856Z,99879.25
2022-11-05T05:39:48.553Z,99883.63
2022-11-05T05:42:55.528Z,99884.25
2022-11-05T05:46:02.372Z,99888.91
2022-11-05T05:49:09.441Z,99897.50
2022-11-05T05:52:13.532Z,99895.31
2022-11-05T05:55:15.281Z,99909.09
2022-11-05T05:58:16.678Z,99901.63
2022-11-05T06:01:19.570Z,99911.03
2022-11-05T06:04:21.544Z,99910.06
2022-11-05T06:07:23.050Z,99917.66
2022-11-05T06:10:25.399Z,99917.91
2022-11-05T06:13:26.942Z,99922.88
2022-11-05T06:16:28.522Z,99920.69
2022-11-05T06:19:29.910Z,99930.56
2022-11-05T06:22:31.292Z,99932.78
2022-11-05T06:25:35.993Z,99933.47
2022-11-05T06:28:42.184Z,99943.13
2022-11-05T06:31:43.651Z,99951.78
2022-11-05T06:34:45.052Z,99954.25
2022-11-05T06:37:46.487Z,99963.19
2022-11-05T06:40:47.903Z,99964.25
2022-11-05T06:43:49.278Z,99973.38
2022-11-05T06:46:50.657Z,99983.44
2022-11-05T06:49:52.307Z,99978.72
2022-11-05T06:52:58.892Z,99979.25
2022-11-05T06:56:05.519Z,99994.66
2022-11-05T06:59:08.474Z,99995.09
2022-11-05T07:02:12.680Z,99998.94
2022-11-05T07:05:15.788Z,100007.06
2022-11-05T07:08:17.285Z,100012.41
2022-11-05T07:11:18.694Z,100012.16
2022-11-05T07:14:20.166Z,100013.66
2022-11-05T07:17:22.696Z,100018.88
2022-11-05T07:20:25.631Z,100018.22
2022-11-05T07:23:28.686Z,100031.72
2022-11-05T07:26:34.411Z,100032.94
2022-11-05T07:29:36.121Z,100038.16
2022-11-05T07:32:43.898Z,100043.00
2022-11-05T07:35:45.338Z,100044.06
2022-11-05T07:38:46.803Z,100047.88
2022-11-05T07:41:48.441Z,100052.31
2022-11-05T07:44:49.969Z,100062.09
2022-11-05T07:47:57.321Z,100056.84
2022-11-05T07:50:58.723Z,100066.50
2022-11-05T07:54:00.258Z,100076.84
2022-11-05T07:57:01.622Z,100072.44
2022-11-05T08:00:03.284Z,100080.84
2022-11-05T08:03:16.668Z,100085.91
2022-11-05T08:06:18.495Z,100091.59
2022-11-05T08:09:19.939Z,100089.09
2022-11-05T08:12:21.378Z,100090.50
2022-11-05T08:15:23.755Z,100091.56
2022-11-05T08:18:31.273Z,100096.25
2022-11-05T08:21:32.661Z,100099.44
2022-11-05T08:24:34.125Z,100093.81
2022-11-05T08:27:35.494Z,100107.03
2022-11-05T08:30:36.904Z,100097.66
2022-11-05T08:33:38.426Z,100113.19
2022-11-05T08:36:43.110Z,100109.78
2022-11-05T08:39:44.564Z,100115.81
2022-11-05T08:42:45.995Z,100116.63
2022-11-05T08:45:47.718Z,100119.13
2022-11-05T08:48:49.874Z,100125.88
2022-11-05T08:51:51.318Z,100124.06
2022-11-05T08:54:52.724Z,100127.97
2022-11-05T08:57:58.960Z,100129.03
2022-11-05T09:01:04.806Z,100126.84
2022-11-05T09:04:06.841Z,100131.94
2022-11-05T09:07:08.262Z,100137.03
2022-11-05T09:10:10.037Z,100138.81
2022-11-05T09:13:18.248Z,100142.75
2022-11-05T09:16:23.375Z,100144.72
2022-11-05T09:19:24.861Z,100137.03
2022-11-05T09:22:26.339Z,100144.63
2022-11-05T09:25:27.997Z,100151.22
2022-11-05T09:28:31.495Z,100152.19
2022-11-05T09:31:32.879Z,100157.00
2022-11-05T09:34:34.672Z,100165.69
2022-11-05T09:37:36.938Z,100167.31
2022-11-05T09:40:47.385Z,100165.38
2022-11-05T09:43:57.147Z,100168.59
2022-11-05T09:47:05.053Z,100172.81
2022-11-05T09:50:12.888Z,100174.16
2022-11-05T09:53:17.417Z,100174.34
2022-11-05T09:56:23.096Z,100173.09
2022-11-05T09:59:29.844Z,100180.28
2022-11-05T10:02:35.250Z,100174.38
2022-11-05T10:05:37.317Z,100178.63
2022-11-05T10:08:43.261Z,100177.44
2022-11-05T10:11:49.940Z,100180.25
2022-11-05T10:15:16.350Z,100182.97
2022-11-05T10:18:49.228Z,100180.88
2022-11-05T10:22:09.914Z,100194.59
2022-11-05T10:25:19.586Z,100188.38
2022-11-05T10:28:24.816Z,100193.72
2022-11-05T10:31:35.158Z,100203.25
2022-11-05T10:34:39.101Z,100209.72
2022-11-05T10:37:41.345Z,100204.88
2022-11-05T10:40:53.613Z,100213.56
2022-11-05T10:44:22.102Z,100208.25
2022-11-05T10:47:29.387Z,100205.50
2022-11-05T10:50:31.402Z,100207.34
2022-11-05T10:53:36.260Z,100201.88
2022-11-05T10:56:40.115Z,100201.31
2022-11-05T10:59:41.517Z,100193.34
2022-11-05T11:02:49.321Z,100205.00
2022-11-05T11:05:59.799Z,100200.72
2022-11-05T11:09:03.623Z,100197.84
2022-11-05T11:12:16.905Z,100201.72
2022-11-05T11:15:25.993Z,100203.34
2022-11-05T11:18:40.200Z,100202.28
2022-11-05T11:21:41.891Z,100199.66
2022-11-05T11:24:54.105Z,100200.72
2022-11-05T11:27:55.969Z,100201.78
2022-11-05T11:31:06.449Z,100199.38
2022-11-05T11:34:26.903Z,100188.97
2022-11-05T11:37:33.703Z,100194.41
2022-11-05T11:40:37.858Z,100202.19
2022-11-05T11:43:42.160Z,100190.09
2022-11-05T11:46:48.673Z,100190.09
2022-11-05T11:49:58.072Z,100191.22
2022-11-05T11:53:21.218Z,100200.72
2022-11-05T11:56:24.229Z,100202.47
2022-11-05T12:00:01.927Z,100200.28
2022-11-05T12:03:01.841Z,100198.75
2022-11-05T12:06:35.881Z,100199.59
2022-11-05T12:10:02.201Z,100207.59
2022-11-05T12:13:18.888Z,100198.69
2022-11-05T12:16:33.351Z,100198.75
2022-11-05T12:19:46.947Z,100197.38
2022-11-05T12:23:13.543Z,100192.38
2022-11-05T12:26:28.943Z,100193.84
2022-11-05T12:29:37.483Z,100187.25
2022-11-05T12:33:05.548Z,100191.13
2022-11-05T12:36:50.190Z,100189.59
2022-11-05T12:40:23.855Z,100194.28
2022-11-05T12:43:53.295Z,100197.03
2022-11-05T12:47:32.949Z,100198.19
2022-11-05T12:50:45.605Z,100195.56
2022-11-05T12:54:16.648Z,100201.53
2022-11-05T12:57:19.853Z,100203.66
2022-11-05T13:00:24.417Z,100196.59
2022-11-05T13:03:40.922Z,100190.75
2022-11-05T13:06:47.140Z,100197.94
2022-11-05T13:09:55.300Z,100189.16
2022-11-05T13:13:12.149Z,100186.59
2022-11-05T13:16:26.884Z,100182.16
2022-11-05T13:19:41.094Z,100187.69
2022-11-05T13:22:49.826Z,100188.19
2022-11-05T13:25:57.739Z,100193.28
2022-11-05T13:29:07.833Z,100179.75
2022-11-05T13:32:24.474Z,100181.97
2022-11-05T13:35:46.888Z,100190.03
2022-11-05T13:39:00.194Z,100189.28
2022-11-05T13:42:26.382Z,100192.03
2022-11-05T13:46:07.918Z,100193.06
2022-11-05T13:49:31.031Z,100191.03
2022-11-05T13:52:55.188Z,100188.50
2022-11-05T13:56:23.172Z,100178.94
2022-11-05T13:59:51.034Z,100188.41
2022-11-05T14:03:02.231Z,100185.88
2022-11-05T14:06:06.603Z,100176.59
2022-11-05T14:09:11.842Z,100177.69
2022-11-05T14:12:35.920Z,100188.06
2022-11-05T14:15:37.358Z,100185.97
2022-11-05T14:18:40.911Z,100178.78
2022-11-05T14:21:53.626Z,100188.50
2022-11-05T14:24:55.130Z,100187.06
2022-11-05T14:27:58.391Z,100184.53
2022-11-05T14:31:00.577Z,100185.13
2022-11-05T14:34:10.876Z,100181.09
2022-11-05T14:37:12.496Z,100184.22
2022-11-05T14:40:20.048Z,100184.19
2022-11-05T14:43:24.467Z,100184.22
2022-11-05T14:46:41.096Z,100182.69
2022-11-05T14:49:54.925Z,100186.13
2022-11-05T14:52:59.707Z,100186.31
2022-11-05T14:56:06.841Z,100184.53
2022-11-05T14:59:28.336Z,100188.91
2022-11-05T15:02:36.552Z,100188.22
2022-11-05T15:05:47.994Z,100185.16
2022-11-05T15:08:49.651Z,100194.28
2022-11-05T15:12:02.330Z,100195.88
2022-11-05T15:15:21.308Z,100203.44
2022-11-05T15:18:43.252Z,100199.44
2022-11-05T15:21:45.470Z,100184.19
2022-11-05T15:24:47.427Z,100196.72
2022-11-05T15:28:02.569Z,100191.72
2022-11-05T15:31:13.313Z,100183.13
2022-11-05T15:34:30.972Z,100183.38
2022-11-05T15:37:32.343Z,100185.41
2022-11-05T15:40:33.876Z,100183.38
2022-11-05T15:43:35.410Z,100186.44
2022-11-05T15:46:36.813Z,100187.16
2022-11-05T15:49:38.690Z,100194.34
2022-11-05T15:52:48.704Z,100194.22
2022-11-05T15:55:55.780Z,100195.19
2022-11-05T15:59:03.563Z,100201.97
2022-11-05T16:02:26.919Z,100202.28
2022-11-05T16:05:33.518Z,100211.13
2022-11-05T16:08:35.889Z,100205.66
2022-11-05T16:11:37.309Z,100215.25
2022-11-05T16:14:39.262Z,100213.44
2022-11-05T16:17:58.757Z,100218.69
2022-11-05T16:21:11.941Z,100220.31
2022-11-05T16:24:29.096Z,100214.56
2022-11-05T16:27:30.810Z,100222.56
2022-11-05T16:30:32.465Z,100226.84
2022-11-05T16:33:45.733Z,100221.63
2022-11-05T16:36:47.156Z,100230.63
2022-11-05T16:39:48.569Z,100230.06
2022-11-05T16:42:52.201Z,100224.19
2022-11-05T16:45:57.029Z,100231.56
2022-11-05T16:48:58.407Z,100225.34
2022-11-05T16:52:00.168Z,100232.84
2022-11-05T16:55:01.690Z,100240.50
2022-11-05T16:58:03.140Z,100235.78
2022-11-05T17:01:10.185Z,100236.41
2022-11-05T17:04:13.041Z,100244.16
2022-11-05T17:07:14.466Z,100236.84
2022-11-05T17:10:16.480Z,100238.59
2022-11-05T17:13:19.551Z,100248.47
2022-11-05T17:16:20.946Z,100241.00
2022-11-05T17:19:22.327Z,100243.03
2022-11-05T17:22:23.706Z,100243.84
2022-11-05T17:25:25.638Z,100249.50
2022-11-05T17:28:28.940Z,100251.50
2022-11-05T17:31:30.398Z,100258.88
2022-11-05T17:34:31.888Z,100250.16
2022-11-05T17:37:36.360Z,100242.53
2022-11-05T17:40:38.328Z,100255.97
2022-11-05T17:43:39.942Z,100258.16
2022-11-05T17:46:41.374Z,100263.06
2022-11-05T17:49:42.770Z,100255.88
2022-11-05T17:52:44.604Z,100269.03
2022-11-05T17:55:46.897Z,100273.03
2022-11-05T17:58:48.254Z,100273.13
2022-11-05T18:01:49.941Z,100275.81
2022-11-05T18:04:51.550Z,100278.41
2022-11-05T18:07:53.034Z,100272.53
2022-11-05T18:10:54.515Z,100276.84
2022-11-05T18:13:55.909Z,100269.31
2022-11-05T18:17:00.001Z,100259.19
2022-11-05T18:20:01.866Z,100275.22
2022-11-05T18:23:03.396Z,100284.28
2022-11-05T18:26:13.032Z,100288.06
2022-11-05T18:29:14.454Z,100279.47
2022-11-05T18:32:15.831Z,100273.69
2022-11-05T18:35:17.293Z,100277.09
2022-11-05T18:38:18.817Z,100266.06
2022-11-05T18:41:21.557Z,100273.13
2022-11-05T18:44:24.694Z,100277.84
2022-11-05T18:47:26.101Z,100279.13
2022-11-05T18:50:28.565Z,100269.19
2022-11-05T18:53:30.023Z,100272.31
2022-11-05T18:56:31.457Z,100262.00
2022-11-05T18:59:38.600Z,100267.91
2022-11-05T19:02:41.171Z,100267.78
2022-11-05T19:05:42.835Z,100269.56
2022-11-05T19:08:44.584Z,100269.38
2022-11-05T19:11:46.202Z,100274.03
2022-11-05T19:14:47.639Z,100267.66
2022-11-05T19:17:49.018Z,100269.75
2022-11-05T19:20:50.451Z,100274.59
2022-11-05T19:23:53.027Z,100272.41
2022-11-05T19:26:54.427Z,100269.97
2022-11-05T19:29:55.830Z,100270.63
2022-11-05T19:32:57.279Z,100269.06
2022-11-05T19:35:58.916Z,100264.34
2022-11-05T19:39:04.333Z,100276.00
2022-11-05T19:42:06.647Z,100273.13
2022-11-05T19:45:30.172Z,100274.41
2022-11-05T19:48:31.394Z,100282.00
2022-11-05T19:51:32.948Z,100278.41
2022-11-05T19:54:35.862Z,100280.28
2022-11-05T19:57:37.424Z,100280.28
2022-11-05T20:00:39.177Z,100286.63
2022-11-05T20:03:41.207Z,100285.66
2022-11-05T20:06:42.660Z,100287.19
2022-11-05T20:09:44.047Z,100290.88
2022-11-05T20:12:45.432Z,100284.47
2022-11-05T20:15:47.066Z,100287.78
2022-11-05T20:18:48.883Z,100281.25
2022-11-05T20:21:50.366Z,100289.91
2022-11-05T20:24:51.917Z,100291.00
2022-11-05T20:27:53.415Z,100285.59
2022-11-05T20:30:57.456Z,100279.03
2022-11-05T20:33:58.876Z,100292.66
2022-11-05T20:37:00.770Z,100286.84
2022-11-05T20:40:02.163Z,100296.22
2022-11-05T20:43:03.554Z,100298.72
2022-11-05T20:46:04.978Z,100296.78
2022-11-05T20:49:06.794Z,100299.94
2022-11-05T20:52:08.186Z,100291.84
2022-11-05T20:55:09.894Z,100289.72
2022-11-05T20:58:12.661Z,100293.78
2022-11-05T21:01:16.441Z,100295.66
2022-11-05T21:04:17.947Z,100289.19
2022-11-05T21:07:19.360Z,100293.34
2022-11-05T21:10:20.932Z,100301.09
2022-11-05T21:13:23.378Z,100295.94
2022-11-05T21:16:24.753Z,100299.41
2022-11-05T21:19:26.125Z,100299.84
2022-11-05T21:22:27.501Z,100294.13
2022-11-05T21:25:28.991Z,100300.69
2022-11-05T21:28:30.408Z,100291.06
2022-11-05T21:31:31.808Z,100297.94
2022-11-05T21:34:33.327Z,100299.59
2022-11-05T21:37:34.745Z,100296.75
2022-11-05T21:40:36.666Z,100299.75
2022-11-05T21:43:38.714Z,100299.03
2022-11-05T21:46:40.275Z,100297.25
2022-11-05T21:49:41.698Z,100299.25
2022-11-05T21:53:01.716Z,100299.50
2022-11-05T21:56:39.291Z,100296.66
2022-11-05T21:59:51.570Z,100293.00
2022-11-05T22:02:53.147Z,100280.69
2022-11-05T22:05:56.357Z,100284.34
2022-11-05T22:08:57.771Z,100284.81
2022-11-05T22:12:00.133Z,100286.09
2022-11-05T22:15:01.649Z,100279.94
2022-11-05T22:18:03.371Z,100293.34
2022-11-05T22:21:05.152Z,100295.09
2022-11-05T22:24:07.322Z,100290.50
2022-11-05T22:27:13.525Z,100286.69
2022-11-05T22:30:15.029Z,100290.84
2022-11-05T22:33:17.185Z,100286.81
2022-11-05T22:36:18.634Z,100290.97
2022-11-05T22:39:20.571Z,100284.56
2022-11-05T22:42:22.920Z,100286.94
2022-11-05T22:45:24.396Z,100287.28
2022-11-05T22:48:25.837Z,100283.38
2022-11-05T22:51:30.538Z,100269.97
2022-11-05T22:54:37.879Z,100269.75
2022-11-05T22:57:40.400Z,100267.75
2022-11-05T23:00:41.780Z,100266.53
2022-11-05T23:03:45.552Z,100265.94
2022-11-05T23:07:05.613Z,100252.00
2022-11-05T23:10:27.550Z,100239.44
2022-11-05T23:13:28.974Z,100236.25
2022-11-05T23:17:03.386Z,100232.66
2022-11-05T23:20:29.757Z,100234.00
2022-11-05T23:23:49.613Z,100231.28
2022-11-05T23:26:51.037Z,100234.22
2022-11-05T23:29:52.575Z,100231.00
2022-11-05T23:32:55.478Z,100234.44
2022-11-05T23:36:15.341Z,100230.06
2022-11-05T23:39:16.861Z,100233.97
2022-11-05T23:42:37.466Z,100227.13
2022-11-05T23:45:49.560Z,100229.03
2022-11-05T23:48:52.614Z,100227.03
2022-11-05T23:51:53.988Z,100217.50
2022-11-05T23:55:02.108Z,100204.59
2022-11-05T23:58:03.823Z,100201.06
